Time;durP1;ratioP1;P1;durP2;ratioP2;P2;SDS_P1;SDS_P2;PMS_P1;PMS_P2;Temp;Humidity;BMP_temperature;BMP_pressure;BME280_temperature;BME280_humidity;BME280_pressure;Samples;Min_cycle;Max_cycle;Signal;HPM_P1;HPM_P2
2023/02/22 10:33:47;;;;;;;;;;;;;;;;;;5028595;23;19929;-91
2023/02/22 10:36:30;;;;;;;;;;;;;;;;;;4982392;28;19965;-89
2023/02/22 10:38:56;;;;;;;;;;;;;;;;;;4978407;28;20387;-92
2023/02/22 10:41:32;;;;;;;;;;;;;;;;;;4976396;28;19918;-85
2023/02/22 10:43:57;;;;;;;;;;;;;;;;;;4979410;28;19914;-91
2023/02/22 10:46:23;;;;;;;;;;;;;;;;;;4977699;28;20281;-85
2023/02/22 10:48:54;;;;;;;;;;;;;;;;;;4977417;28;19921;-86
2023/02/22 10:51:24;;;;;;;;;;;;;;;;;;4977667;28;19921;-89
2023/02/22 10:54:18;;;;;;;;;;;;;;;;;;4976174;28;19918;-88
2023/02/22 10:56:49;;;;;;;;;;;;;;;;;;4978667;28;19921;-91
2023/02/22 10:59:34;;;;;;;;;;;;;;;;;;4980342;28;19996;-93
2023/02/22 11:02:00;;;;;;;;;;;;;;;;;;4978318;28;19914;-88
2023/02/22 11:04:26;;;;;;;;;;;;;;;;;;4977247;28;19941;-89
2023/02/22 11:06:58;;;;;;;;;;;;;;;;;;4981183;28;20370;-93
2023/02/22 11:09:23;;;;;;;;;;;;;;;;;;4977103;28;20427;-88
2023/02/22 11:11:49;;;;;;;;;;;;;;;;;;4975480;28;19918;-85
2023/02/22 11:14:25;;;;;;;;;;;;;;;;;;4976696;28;20028;-86
2023/02/22 11:16:55;;;;;;;;;;;;;;;;;;4976525;28;19914;-93
2023/02/22 11:19:28;;;;;;;;;;;;;;;;;;4975442;28;19964;-82
2023/02/22 11:22:13;;;;;;;;;;;;;;;;;;4975666;28;19914;-87
2023/02/22 11:25:06;;;;;;;;;;;;;;;;;;4957156;28;19922;-81
2023/02/22 11:27:40;;;;;;;;;;;;;;;;;;4955913;29;20017;-82
2023/02/22 11:30:19;;;;;;;;;;;;;;;;;;4955698;28;20022;-82
2023/02/22 11:32:47;;;;;;;;;;;;;;;;;;4957139;28;19925;-82
2023/02/22 11:35:39;;;;;;;;;;;;;;;;;;4956791;28;19918;-82
2023/02/22 11:38:09;;;;;;;;;;;;;;;;;;4940925;29;19922;-82
2023/02/22 11:40:34;;;;;;;;;;;;;;;;;;4957954;29;19951;-82
2023/02/22 11:43:10;;;;;;;;;;;;;;;;;;4962468;28;19922;-84
2023/02/22 11:45:36;;;;;;;;;;;;;;;;;;4976065;28;19921;-82
2023/02/22 11:48:03;;;;;;;;;;;;;;;;;;4976223;28;19917;-82
2023/02/22 11:50:37;;;;;;;;;;;;;;;;;;4976170;28;20013;-84
2023/02/22 11:53:21;;;;;;;;;;;;;;;;;;4974900;28;19920;-81
2023/02/22 11:55:55;;;;;;;;;;;;;;;;;;4975870;28;19914;-82
2023/02/22 11:58:23;;;;;;;;;;;;;;;;;;4976145;28;19920;-82
2023/02/22 12:00:49;;;;;;;;;;;;;;;;;;4976252;28;19921;-84
2023/02/22 12:03:14;;;;;;;;;;;;;;;;;;4975829;28;20305;-83
2023/02/22 12:05:58;;;;;;;;;;;;;;;;;;4975769;28;19920;-84
2023/02/22 12:08:33;;;;;;;;;;;;;;;;;;4975895;28;19914;-85
2023/02/22 12:11:21;;;;;;;;;;;;;;;;;;4975579;28;20351;-83
2023/02/22 12:13:52;;;;;;;;;;;;;;;;;;4975448;28;20404;-84
2023/02/22 12:16:17;;;;;;;;;;;;;;;;;;4975606;28;19953;-83
2023/02/22 12:19:01;;;;;;;;;;;;;;;;;;4975557;28;19921;-84
2023/02/22 12:21:28;;;;;;;;;;;;;;;;;;4975327;28;19926;-83
2023/02/22 12:24:06;;;;;;;;;;;;;;;;;;4975641;28;19914;-83
2023/02/22 12:26:40;;;;;;;;;;;;;;;;;;4975394;28;19914;-83
2023/02/22 12:29:11;;;;;;;;;;;;;;;;;;4975224;28;20009;-83
2023/02/22 12:31:48;;;;;;;;;;;;;;;;;;4975304;28;19914;-88
2023/02/22 12:34:35;;;;;;;;;;;;;;;;;;4975649;28;19918;-84
2023/02/22 12:37:23;;;;;;;;;;;;;;;;;;4975504;28;19918;-86
2023/02/22 12:40:07;;;;;;;;;;;;;;;;;;4972066;28;19914;-86
2023/02/22 12:42:43;;;;;;;;;;;;;;;;;;4975631;28;20004;-84
2023/02/22 12:45:15;;;;;;;;;;;;;;;;;;4975117;28;19921;-84
2023/02/22 18:32:23;;;;;;;;;;;;;;;;;;4979566;28;19957;-83
2023/02/22 18:34:52;;;;;;;;;;;;;;;;;;4977435;28;19925;-83
2023/02/22 18:37:19;;;;;;;;;;;;;;;;;;4972344;28;20365;-84
2023/02/22 18:39:44;;;;;;;;;;;;;;;;;;4958174;28;20009;-83
2023/02/22 18:42:12;;;;;;;;;;;;;;;;;;4958806;28;19962;-82
2023/02/22 18:44:38;;;;;;;;;;;;;;;;;;4958167;28;19921;-83
2023/02/22 18:47:04;;;;;;;;;;;;;;;;;;4957967;28;19915;-83
2023/02/22 18:49:29;;;;;;;;;;;;;;;;;;4957991;28;20009;-81
2023/02/22 18:51:55;;;;;;;;;;;;;;;;;;4958212;28;19910;-83
2023/02/22 18:54:20;;;;;;;;;;;;;;;;;;4958073;28;19920;-85
2023/02/22 18:56:46;;;;;;;;;;;;;;;;;;4957755;28;19914;-86
2023/02/22 18:59:12;;;;;;;;;;;;;;;;;;4957691;28;20000;-86
2023/02/22 19:01:39;;;;;;;;;;;;;;;;;;4957904;28;19918;-86
2023/02/22 19:04:05;;;;;;;;;;;;;;;;;;4958027;28;19917;-86
2023/02/22 19:06:33;;;;;;;;;;;;;;;;;;4956464;28;19914;-87
2023/02/22 19:09:00;;;;;;;;;;;;;;;;;;4958048;28;20017;-84
2023/02/22 19:11:25;;;;;;;;;;;;;;;;;;4957783;28;19918;-84
2023/02/22 19:13:52;;;;;;;;;;;;;;;;;;4957674;28;19914;-84
2023/02/22 19:16:18;;;;;;;;;;;;;;;;;;4957431;28;19919;-84
2023/02/22 20:55:51;;;;;;;;;;;;;;;;;;4962442;28;19958;-85
2023/02/22 20:58:20;;;;;;;;;;;;;;;;;;4956747;28;19922;-85
2023/02/22 21:00:45;;;;;;;;;;;;;;;;;;4955819;29;19914;-84
2023/02/22 21:03:11;;;;;;;;;;;;;;;;;;4957068;28;19969;-85
2023/02/22 21:05:40;;;;;;;;;;;;;;;;;;4956481;28;19930;-86
2023/02/22 21:08:06;;;;;;;;;;;;;;;;;;4957644;28;19918;-84
2023/02/22 21:10:38;;;;;;;;;;;;;;;;;;4957239;28;20388;-85
2023/02/22 21:13:04;;;;;;;;;;;;;;;;;;4956622;28;19914;-84
2023/02/22 21:15:29;;;;;;;;;;;;;;;;;;4956000;28;20022;-86
2023/02/22 21:17:55;;;;;;;;;;;;;;;;;;4955539;28;19969;-87
2023/02/22 21:20:20;;;;;;;;;;;;;;;;;;4955191;28;19914;-90
2023/02/22 21:22:48;;;;;;;;;;;;;;;;;;4956449;28;19921;-84
2023/02/22 21:25:15;;;;;;;;;;;;;;;;;;4956326;28;19925;-86
2023/02/22 21:27:40;;;;;;;;;;;;;;;;;;4956762;28;19915;-86
